MSC Vienna — A8CI9 — position and weather

sailwx.info

Track history (hours):
 
Tides and Currents Weather Stations Pressure Air Temp Water Temp Dewpoint Dewpoint Depression Visibility Wind Speed Wind Dir Waves Ship Positions

MSC Vienna

Last reported at 2014-Oct-07 20:33 UTC. Time now 2014-Oct-25 10:24 UTC.
Position S 20°09' E 057°23'.
Warning: this ship's position is 17 days out of date.

Length 260.1 m; beam 32.2 m; draft 12 m.

Type: Ship. MMSI: 636090654.

Date/timePositionNaut miles runAvg speedWind from/ knotsBaromVisibWave heightAir tempDewpointWater temp
2014-Oct-07 20:33S 20°09' E 057°23'6 5.9
2014-Oct-07 19:32S 20°08' E 057°29'0 0.0
2014-Oct-07 18:32S 20°08' E 057°29'0 0.0
2014-Oct-07 17:32S 20°08' E 057°29'0 0.0
2014-Oct-07 16:31S 20°08' E 057°29'0 0.0
2014-Oct-07 15:31S 20°08' E 057°29'0 0.0
2014-Oct-07 14:33S 20°08' E 057°29'0 0.0
2014-Oct-07 13:33S 20°08' E 057°29'0 0.0
2014-Oct-07 12:32S 20°08' E 057°29'0 0.0
2014-Oct-07 11:32S 20°08' E 057°29'0 0.0
2014-Oct-07 10:28S 20°08' E 057°29'0 0.0
2014-Oct-07 09:31S 20°08' E 057°29'0 0.0
2014-Oct-07 08:31S 20°08' E 057°29'0 0.0
2014-Oct-07 07:33S 20°08' E 057°29'0 0.0
2014-Oct-07 06:33S 20°08' E 057°29'0 0.0
2014-Oct-07 05:32S 20°08' E 057°29'0 0.0
2014-Oct-07 04:29S 20°08' E 057°29'0 0.0
2014-Oct-07 03:31S 20°08' E 057°29'0 0.0
2014-Oct-07 02:31S 20°08' E 057°29'3 3.4
2014-Oct-07 01:33S 20°06' E 057°27'8 7.4
2014-Oct-07 00:28S 19°60' E 057°22'1 1.3
2014-Oct-06 23:27S 19°60' E 057°23'1 1.1
2014-Oct-06 22:33S 20°00' E 057°24'1 0.9
2014-Oct-06 21:33S 20°01' E 057°25'1 0.8
2014-Oct-06 20:33S 20°01' E 057°26'1 0.9
2014-Oct-06 19:33S 20°01' E 057°27'1 1.4
2014-Oct-06 18:33S 20°00' E 057°28'  
Track history (hours):
 
Tides and Currents Weather Stations Pressure Air Temp Water Temp Dewpoint Dewpoint Depression Visibility Wind Speed Wind Dir Waves Ship Positions

MSC Vienna

Last reported at 2014-Oct-07 20:33 UTC. Time now 2014-Oct-25 10:24 UTC.
Position S 20°09' E 057°23'.
Warning: this ship's position is 17 days out of date.

Length 260.1 m; beam 32.2 m; draft 12 m.

Type: Ship. MMSI: 636090654.

Date/timePositionNaut miles runAvg speedWind from/ knotsBaromVisibWave heightAir tempDewpointWater temp
2014-Oct-07 20:33S 20°09' E 057°23'6 5.9
2014-Oct-07 19:32S 20°08' E 057°29'0 0.0
2014-Oct-07 18:32S 20°08' E 057°29'0 0.0
2014-Oct-07 17:32S 20°08' E 057°29'0 0.0
2014-Oct-07 16:31S 20°08' E 057°29'0 0.0
2014-Oct-07 15:31S 20°08' E 057°29'0 0.0
2014-Oct-07 14:33S 20°08' E 057°29'0 0.0
2014-Oct-07 13:33S 20°08' E 057°29'0 0.0
2014-Oct-07 12:32S 20°08' E 057°29'0 0.0
2014-Oct-07 11:32S 20°08' E 057°29'0 0.0
2014-Oct-07 10:28S 20°08' E 057°29'0 0.0
2014-Oct-07 09:31S 20°08' E 057°29'0 0.0
2014-Oct-07 08:31S 20°08' E 057°29'0 0.0
2014-Oct-07 07:33S 20°08' E 057°29'0 0.0
2014-Oct-07 06:33S 20°08' E 057°29'0 0.0
2014-Oct-07 05:32S 20°08' E 057°29'0 0.0
2014-Oct-07 04:29S 20°08' E 057°29'0 0.0
2014-Oct-07 03:31S 20°08' E 057°29'0 0.0
2014-Oct-07 02:31S 20°08' E 057°29'3 3.4
2014-Oct-07 01:33S 20°06' E 057°27'8 7.4
2014-Oct-07 00:28S 19°60' E 057°22'1 1.3
2014-Oct-06 23:27S 19°60' E 057°23'1 1.1
2014-Oct-06 22:33S 20°00' E 057°24'1 0.9
2014-Oct-06 21:33S 20°01' E 057°25'1 0.8
2014-Oct-06 20:33S 20°01' E 057°26'1 0.9
2014-Oct-06 19:33S 20°01' E 057°27'1 1.4
2014-Oct-06 18:33S 20°00' E 057°28'  

Dump ship's entire track history